Time;durP1;ratioP1;P1;durP2;ratioP2;P2;SDS_P1;SDS_P2;PMS_P1;PMS_P2;Temp;Humidity;BMP_temperature;BMP_pressure;BME280_temperature;BME280_humidity;BME280_pressure;Samples;Min_cycle;Max_cycle;Signal;HPM_P1;HPM_P2
2022/12/30 00:00:11;;;;;;;22.83;4.95;;;6.40;87.10;;;;;;5000604;28;20034;-75
2022/12/30 00:02:38;;;;;;;21.02;5.13;;;6.40;87.00;;;;;;4990922;28;20038;-76
2022/12/30 00:05:04;;;;;;;17.58;5.60;;;6.40;87.00;;;;;;4998405;28;20843;-75
2022/12/30 00:07:34;;;;;;;24.25;6.05;;;6.30;87.00;;;;;;4993473;28;20033;-75
2022/12/30 00:10:01;;;;;;;19.98;4.95;;;6.30;87.10;;;;;;4997760;28;20394;-75
2022/12/30 00:35:08;;;;;;;19.95;4.53;;;6.30;86.90;;;;;;5000073;28;20309;-75
2022/12/30 00:37:35;;;;;;;17.48;4.95;;;6.40;86.80;;;;;;4994921;28;20069;-75
2022/12/30 00:40:01;;;;;;;23.60;5.20;;;6.30;86.80;;;;;;5001820;28;20044;-74
2022/12/30 00:45:12;;;;;;;16.30;5.07;;;6.20;87.10;;;;;;5001616;28;20032;-75
2022/12/30 00:47:38;;;;;;;20.90;5.90;;;6.20;87.30;;;;;;5003786;28;20038;-75
2022/12/30 00:58:19;;;;;;;19.60;4.50;;;6.20;87.30;;;;;;5002247;28;20095;-75
2022/12/30 01:00:45;;;;;;;15.68;4.40;;;6.20;87.30;;;;;;5001601;28;20065;-76
2022/12/30 01:03:10;;;;;;;17.55;5.03;;;6.20;87.20;;;;;;4998758;28;20022;-76
2022/12/30 01:05:40;;;;;;;17.77;4.97;;;6.20;87.30;;;;;;5004722;28;20130;-76
2022/12/30 01:08:06;;;;;;;16.55;4.18;;;6.20;87.30;;;;;;5003744;28;20018;-75
2022/12/30 01:10:31;;;;;;;14.10;4.07;;;6.20;87.40;;;;;;5002283;28;20032;-75
2022/12/30 01:12:57;;;;;;;16.98;4.80;;;6.10;87.50;;;;;;4998046;28;20611;-75
2022/12/30 01:15:23;;;;;;;16.15;4.55;;;6.10;87.50;;;;;;4997690;28;20049;-74
2022/12/30 01:17:49;;;;;;;12.98;4.30;;;6.10;87.60;;;;;;4995511;28;20018;-75
2022/12/30 01:20:15;;;;;;;14.00;4.38;;;6.10;87.80;;;;;;5000147;28;20037;-76
2022/12/30 01:22:40;;;;;;;18.23;5.10;;;6.10;87.70;;;;;;5007729;28;20433;-76
2022/12/30 01:25:06;;;;;;;18.02;4.32;;;6.10;87.70;;;;;;4998999;28;20044;-75
2022/12/30 01:27:32;;;;;;;15.98;4.40;;;6.10;87.90;;;;;;5001850;28;20034;-76
2022/12/30 01:29:58;;;;;;;15.15;4.55;;;6.10;87.90;;;;;;4997882;28;20053;-75
2022/12/30 01:32:27;;;;;;;16.95;4.63;;;6.10;87.90;;;;;;5005556;28;20088;-76
2022/12/30 01:34:54;;;;;;;20.77;4.60;;;6.00;87.90;;;;;;5007367;28;20029;-75
2022/12/30 01:37:20;;;;;;;19.65;5.25;;;6.00;87.90;;;;;;5006546;28;20096;-76
2022/12/30 01:39:46;;;;;;;19.33;4.75;;;6.00;88.00;;;;;;5008076;28;20037;-75
2022/12/30 01:42:18;;;;;;;16.65;4.82;;;6.00;88.20;;;;;;5003626;28;20038;-75
2022/12/30 01:44:52;;;;;;;14.25;4.75;;;6.00;88.30;;;;;;5002937;28;20041;-76
2022/12/30 01:47:23;;;;;;;15.55;5.15;;;6.00;88.10;;;;;;5007544;28;20041;-75
2022/12/30 01:49:53;;;;;;;20.00;5.07;;;6.00;88.30;;;;;;4996898;28;20060;-76
2022/12/30 01:52:24;;;;;;;16.27;4.63;;;6.00;88.30;;;;;;5004181;28;20569;-76
2022/12/30 01:54:54;;;;;;;11.90;3.92;;;6.00;88.40;;;;;;4999963;28;20041;-76
2022/12/30 01:57:19;;;;;;;18.48;4.82;;;5.90;88.30;;;;;;5001039;28;20033;-76
2022/12/30 01:59:46;;;;;;;19.75;5.30;;;5.90;88.30;;;;;;5002359;28;20196;-75
2022/12/30 02:02:12;;;;;;;23.08;5.20;;;5.90;88.50;;;;;;5003684;28;20184;-75
2022/12/30 02:04:39;;;;;;;18.83;4.90;;;5.90;88.50;;;;;;5001602;28;20112;-75
2022/12/30 02:07:21;;;;;;;16.67;4.70;;;5.80;88.60;;;;;;4997674;28;20569;-75
2022/12/30 02:09:47;;;;;;;16.08;4.20;;;5.80;88.70;;;;;;5005952;28;20037;-75
2022/12/30 02:12:13;;;;;;;20.77;5.10;;;5.80;88.70;;;;;;5013576;28;20042;-75
2022/12/30 02:14:40;;;;;;;20.33;4.82;;;5.80;88.80;;;;;;5002609;28;20073;-74
2022/12/30 02:17:37;;;;;;;12.50;4.20;;;5.70;88.80;;;;;;4997399;28;20042;-75
2022/12/30 02:20:40;;;;;;;18.25;6.00;;;5.70;88.90;;;;;;5005223;28;20041;-75
2022/12/30 02:23:05;;;;;;;21.83;5.00;;;5.70;88.80;;;;;;4998530;28;20491;-75
2022/12/30 02:25:41;;;;;;;21.95;4.80;;;5.70;89.10;;;;;;5004925;28;20057;-75
2022/12/30 02:28:48;;;;;;;20.48;4.78;;;5.60;89.10;;;;;;5004802;28;20029;-75
2022/12/30 02:31:34;;;;;;;18.08;4.88;;;5.60;89.20;;;;;;5006744;28;20104;-74
2022/12/30 02:34:29;;;;;;;22.90;5.18;;;5.60;89.30;;;;;;5006515;28;20324;-75
2022/12/30 02:37:17;;;;;;;16.08;4.53;;;5.50;89.40;;;;;;4999769;28;20030;-75
2022/12/30 02:40:16;;;;;;;21.52;5.03;;;5.50;89.60;;;;;;5008234;28;20091;-75
2022/12/30 02:45:43;;;;;;;15.38;4.80;;;5.50;89.70;;;;;;4997839;28;20396;-76
2022/12/30 02:48:13;;;;;;;23.20;5.32;;;5.40;89.80;;;;;;4998235;28;20030;-75
2022/12/30 02:53:32;;;;;;;15.70;4.85;;;5.40;89.80;;;;;;4995793;28;20492;-75
2022/12/30 02:55:58;;;;;;;18.35;4.43;;;5.40;89.80;;;;;;4998424;28;20526;-75
2022/12/30 02:58:27;;;;;;;22.23;5.40;;;5.40;89.90;;;;;;4997951;28;20101;-75
2022/12/30 03:03:58;;;;;;;15.70;4.10;;;5.40;90.10;;;;;;4998403;28;20545;-75
2022/12/30 03:06:29;;;;;;;16.88;4.28;;;5.40;90.20;;;;;;5006393;28;20058;-76
2022/12/30 03:09:09;;;;;;;16.77;4.68;;;5.40;90.20;;;;;;5006221;28;20030;-76
2022/12/30 03:12:03;;;;;;;16.58;5.28;;;5.40;90.20;;;;;;5001851;28;20038;-76
2022/12/30 03:14:46;;;;;;;19.42;5.68;;;5.40;90.20;;;;;;4998569;28;21540;-75
2022/12/30 03:17:23;;;;;;;13.57;4.28;;;5.40;90.30;;;;;;4997363;28;20046;-75
2022/12/30 03:19:55;;;;;;;22.10;6.15;;;5.40;90.30;;;;;;5006212;28;20037;-75
2022/12/30 03:27:57;;;;;;;18.60;5.82;;;5.40;90.40;;;;;;5001784;28;20045;-74
2022/12/30 03:30:23;;;;;;;14.23;4.80;;;5.40;90.50;;;;;;5002140;28;20053;-75
2022/12/30 03:32:49;;;;;;;16.15;4.72;;;5.30;90.50;;;;;;4998418;28;20500;-76
2022/12/30 03:35:15;;;;;;;15.05;4.40;;;5.40;90.60;;;;;;5003658;28;20112;-75
2022/12/30 03:37:48;;;;;;;16.48;4.85;;;5.40;90.70;;;;;;5005662;28;20438;-75
2022/12/30 03:40:19;;;;;;;19.42;4.70;;;5.40;90.70;;;;;;4997454;28;20065;-76
2022/12/30 03:42:46;;;;;;;17.25;4.65;;;5.40;90.60;;;;;;5005971;28;20175;-75
2022/12/30 03:45:13;;;;;;;16.55;5.43;;;5.40;90.60;;;;;;5003225;28;20230;-76
2022/12/30 03:47:39;;;;;;;22.15;7.13;;;5.40;90.80;;;;;;5011536;28;20034;-76
2022/12/30 03:50:05;;;;;;;20.63;5.03;;;5.40;90.80;;;;;;4999594;28;20029;-75
2022/12/30 03:52:30;;;;;;;21.25;7.05;;;5.40;90.90;;;;;;4998837;28;20617;-74
2022/12/30 03:54:56;;;;;;;19.30;5.60;;;5.40;91.00;;;;;;4997925;28;20034;-74
2022/12/30 03:57:22;;;;;;;19.92;5.60;;;5.40;91.00;;;;;;4999339;28;20037;-74
2022/12/30 03:59:47;;;;;;;19.80;5.68;;;5.40;91.00;;;;;;4999536;28;20025;-75
2022/12/30 04:02:13;;;;;;;14.02;5.28;;;5.40;90.90;;;;;;4998422;28;20039;-76
2022/12/30 04:04:39;;;;;;;21.60;6.28;;;5.40;91.10;;;;;;5007874;28;20450;-75
2022/12/30 04:07:04;;;;;;;16.63;5.18;;;5.40;91.20;;;;;;5007822;28;20120;-75
2022/12/30 04:09:30;;;;;;;21.13;5.97;;;5.40;91.20;;;;;;5009621;28;20101;-75
2022/12/30 04:11:56;;;;;;;20.85;5.53;;;5.40;91.30;;;;;;5002497;28;20048;-75
2022/12/30 04:14:21;;;;;;;17.98;5.45;;;5.40;91.30;;;;;;5007723;28;20417;-75
2022/12/30 04:16:47;;;;;;;19.27;5.50;;;5.40;91.30;;;;;;4997927;28;20398;-75
2022/12/30 04:19:13;;;;;;;21.80;5.47;;;5.40;91.20;;;;;;4993929;28;20038;-76
2022/12/30 04:21:39;;;;;;;17.00;5.70;;;5.40;91.30;;;;;;4998940;28;20322;-75
2022/12/30 04:24:05;;;;;;;21.23;6.18;;;5.40;91.20;;;;;;5001084;28;20057;-75
2022/12/30 04:26:31;;;;;;;22.70;6.35;;;5.40;91.20;;;;;;5000746;28;20045;-75
2022/12/30 04:28:56;;;;;;;26.98;5.95;;;5.40;91.30;;;;;;4998833;28;20383;-75
2022/12/30 04:31:22;;;;;;;19.90;6.13;;;5.40;91.40;;;;;;5001359;28;20050;-74
2022/12/30 04:33:52;;;;;;;18.70;5.75;;;5.40;91.40;;;;;;4998527;28;20080;-74
2022/12/30 04:36:20;;;;;;;20.08;5.50;;;5.40;91.50;;;;;;4998858;28;20074;-74
2022/12/30 04:38:46;;;;;;;20.48;5.68;;;5.40;91.50;;;;;;4999757;28;20545;-74
2022/12/30 04:41:12;;;;;;;22.10;6.13;;;5.40;91.60;;;;;;4996528;28;20038;-74
2022/12/30 04:43:38;;;;;;;18.77;5.25;;;5.30;91.70;;;;;;5002003;28;20022;-75
2022/12/30 04:46:04;;;;;;;20.20;5.63;;;5.40;91.80;;;;;;4994953;28;20386;-76
2022/12/30 04:48:30;;;;;;;23.33;5.53;;;5.40;91.70;;;;;;4999539;28;20064;-76
2022/12/30 04:50:55;;;;;;;18.80;5.20;;;5.40;91.80;;;;;;4998433;28;20035;-76
2022/12/30 04:53:21;;;;;;;20.08;5.10;;;5.40;91.80;;;;;;5001835;28;20450;-76
2022/12/30 04:55:55;;;;;;;16.75;4.90;;;5.50;91.80;;;;;;5003098;28;20061;-75
2022/12/30 04:58:21;;;;;;;20.85;6.43;;;5.50;91.80;;;;;;5004857;28;20517;-75
2022/12/30 05:00:47;;;;;;;19.92;5.95;;;5.40;91.80;;;;;;5002174;28;20084;-74
2022/12/30 05:03:13;;;;;;;14.25;5.72;;;5.40;91.90;;;;;;4999399;28;20041;-76
2022/12/30 05:05:39;;;;;;;24.40;6.18;;;5.40;92.00;;;;;;4998022;28;20042;-74
2022/12/30 05:08:05;;;;;;;22.15;6.57;;;5.50;92.00;;;;;;5012529;28;20037;-74
2022/12/30 05:10:33;;;;;;;21.25;6.60;;;5.40;92.00;;;;;;5002427;28;20026;-74
2022/12/30 05:12:59;;;;;;;23.88;6.40;;;5.50;92.20;;;;;;5002729;28;20207;-74
2022/12/30 05:15:24;;;;;;;26.88;7.25;;;5.50;92.30;;;;;;5004762;28;20041;-74
2022/12/30 05:17:50;;;;;;;19.88;8.15;;;5.50;92.30;;;;;;5005155;28;20037;-75
2022/12/30 05:20:16;;;;;;;26.23;9.20;;;5.60;92.40;;;;;;5012635;28;20397;-74
2022/12/30 05:22:41;;;;;;;23.08;9.32;;;5.60;92.40;;;;;;5007294;28;20128;-75
2022/12/30 05:27:51;;;;;;;25.92;10.00;;;5.70;92.30;;;;;;5002589;28;20044;-75
2022/12/30 05:30:17;;;;;;;29.30;11.18;;;5.70;92.30;;;;;;5003111;28;20034;-75
2022/12/30 05:32:43;;;;;;;27.77;12.73;;;5.70;92.30;;;;;;4998954;28;20026;-75
2022/12/30 05:35:09;;;;;;;27.45;13.10;;;5.70;92.30;;;;;;4998614;28;20486;-75
2022/12/30 05:37:34;;;;;;;31.15;14.45;;;5.80;92.30;;;;;;5001339;28;20098;-75
2022/12/30 05:40:00;;;;;;;27.80;14.15;;;5.80;92.40;;;;;;4998495;28;20486;-75
2022/12/30 05:42:26;;;;;;;30.95;13.95;;;5.90;92.30;;;;;;5001318;28;20625;-76
2022/12/30 05:44:51;;;;;;;29.85;14.18;;;5.90;92.30;;;;;;4994530;28;20061;-76
2022/12/30 05:47:17;;;;;;;28.55;14.23;;;6.00;92.30;;;;;;4998118;28;20124;-76
2022/12/30 05:49:42;;;;;;;26.00;14.38;;;6.00;92.20;;;;;;5002358;28;20399;-76
2022/12/30 05:52:08;;;;;;;30.17;14.65;;;6.00;92.20;;;;;;5001319;28;20373;-76
2022/12/30 05:54:34;;;;;;;27.35;14.63;;;6.00;92.10;;;;;;4994337;28;20049;-76
2022/12/30 05:56:59;;;;;;;35.50;15.60;;;6.00;92.10;;;;;;5003356;28;20101;-75
2022/12/30 05:59:25;;;;;;;26.38;13.80;;;6.00;92.10;;;;;;5008487;28;20033;-75
2022/12/30 06:01:51;;;;;;;28.17;14.52;;;6.10;92.10;;;;;;5001541;28;20053;-75
2022/12/30 06:04:17;;;;;;;26.58;12.80;;;6.10;92.10;;;;;;5005512;28;20468;-75
2022/12/30 06:06:44;;;;;;;30.48;12.52;;;6.10;92.00;;;;;;5007118;28;20122;-76
2022/12/30 06:09:09;;;;;;;28.15;14.18;;;6.10;91.90;;;;;;5008984;28;20022;-75
2022/12/30 06:11:35;;;;;;;27.75;14.00;;;6.10;91.80;;;;;;5002936;28;20030;-75
2022/12/30 06:14:01;;;;;;;28.00;14.60;;;6.10;91.80;;;;;;5003460;28;20115;-75
2022/12/30 06:16:26;;;;;;;28.10;16.40;;;6.10;91.60;;;;;;5003600;28;20468;-75
2022/12/30 06:18:52;;;;;;;30.15;15.25;;;6.10;91.60;;;;;;5006391;28;20030;-75
2022/12/30 06:21:18;;;;;;;34.70;15.18;;;6.10;91.50;;;;;;4997124;28;20044;-76
2022/12/30 06:23:43;;;;;;;28.27;13.63;;;6.20;91.50;;;;;;5001525;28;20018;-75
2022/12/30 06:26:09;;;;;;;26.13;14.15;;;6.10;91.50;;;;;;4997486;28;20129;-76
2022/12/30 06:28:35;;;;;;;29.13;15.13;;;6.20;91.40;;;;;;4999847;28;20072;-76
2022/12/30 06:31:01;;;;;;;23.80;14.90;;;6.20;91.40;;;;;;4997239;28;20038;-75
2022/12/30 06:33:26;;;;;;;28.75;16.77;;;6.30;91.30;;;;;;4999439;28;20026;-75
2022/12/30 06:35:52;;;;;;;27.90;16.90;;;6.30;91.30;;;;;;5000632;28;20030;-75
2022/12/30 06:38:18;;;;;;;29.13;17.67;;;6.30;91.40;;;;;;5003478;28;20026;-75
2022/12/30 06:40:45;;;;;;;32.40;16.63;;;6.30;91.30;;;;;;4992571;28;20057;-75
2022/12/30 06:43:11;;;;;;;26.50;15.75;;;6.40;91.40;;;;;;5005312;28;20034;-75
2022/12/30 06:45:37;;;;;;;28.30;17.05;;;6.30;91.40;;;;;;5000754;28;20418;-75
2022/12/30 06:48:03;;;;;;;31.95;17.30;;;6.40;91.40;;;;;;4994065;28;20112;-75
2022/12/30 06:50:29;;;;;;;31.00;17.20;;;6.40;91.50;;;;;;5005732;28;20520;-75
2022/12/30 06:52:54;;;;;;;31.80;19.13;;;6.50;91.50;;;;;;5009810;28;20041;-75
2022/12/30 06:55:21;;;;;;;33.53;20.25;;;6.50;91.60;;;;;;4998847;28;20053;-75
2022/12/30 06:57:48;;;;;;;35.28;19.13;;;6.50;91.50;;;;;;4997234;28;20315;-76
2022/12/30 07:00:14;;;;;;;31.27;18.75;;;6.60;91.50;;;;;;4995957;28;20181;-75
2022/12/30 07:02:41;;;;;;;31.58;16.90;;;6.60;91.60;;;;;;5000292;28;20482;-75
2022/12/30 07:05:07;;;;;;;32.00;15.80;;;6.60;91.60;;;;;;4996791;28;20489;-75
2022/12/30 07:07:33;;;;;;;27.38;14.77;;;6.60;91.40;;;;;;5006512;28;20030;-76
2022/12/30 07:09:59;;;;;;;22.10;13.25;;;6.70;91.50;;;;;;5003157;28;20029;-74
2022/12/30 07:12:25;;;;;;;23.90;12.00;;;6.70;91.40;;;;;;5003100;28;20091;-75
2022/12/30 07:14:50;;;;;;;25.15;12.50;;;6.70;91.30;;;;;;4997688;28;20136;-75
2022/12/30 07:17:16;;;;;;;20.92;12.07;;;6.70;91.30;;;;;;4999823;28;20034;-75
2022/12/30 07:19:46;;;;;;;24.38;11.77;;;6.80;91.20;;;;;;5005960;28;20026;-76
2022/12/30 07:22:12;;;;;;;23.95;11.85;;;6.80;91.20;;;;;;4994902;28;20440;-75
2022/12/30 07:24:38;;;;;;;19.50;10.70;;;6.80;91.10;;;;;;5002842;28;20443;-74
2022/12/30 07:27:03;;;;;;;24.67;10.88;;;6.80;91.10;;;;;;4998701;28;20061;-75
2022/12/30 07:29:30;;;;;;;23.23;10.45;;;6.80;91.10;;;;;;5005150;28;20034;-75
2022/12/30 07:31:57;;;;;;;21.27;10.50;;;6.80;91.10;;;;;;4997678;28;20026;-75
2022/12/30 07:34:23;;;;;;;19.58;10.20;;;6.90;91.20;;;;;;5002054;28;20265;-74
2022/12/30 07:36:48;;;;;;;18.95;10.75;;;6.90;91.10;;;;;;4996318;28;20035;-74
2022/12/30 07:39:14;;;;;;;20.33;8.80;;;6.90;91.00;;;;;;5006577;28;20022;-75
2022/12/30 07:41:40;;;;;;;22.00;7.90;;;7.00;90.90;;;;;;5003248;28;20026;-74
2022/12/30 07:44:06;;;;;;;22.20;7.10;;;7.10;90.80;;;;;;5005979;28;20022;-75
2022/12/30 07:46:31;;;;;;;21.02;7.22;;;7.10;90.60;;;;;;4994805;28;20038;-75
2022/12/30 07:48:57;;;;;;;14.38;6.88;;;7.10;90.60;;;;;;4997086;28;20065;-75
2022/12/30 07:51:23;;;;;;;17.25;6.55;;;7.10;90.60;;;;;;4994639;28;20041;-75
2022/12/30 07:53:48;;;;;;;19.00;6.90;;;7.10;90.50;;;;;;4994264;28;20486;-75
2022/12/30 07:56:14;;;;;;;16.48;5.95;;;7.10;90.50;;;;;;5000450;28;20103;-74
2022/12/30 07:58:40;;;;;;;16.65;6.32;;;7.20;90.50;;;;;;5002072;28;20284;-75
2022/12/30 08:01:12;;;;;;;17.67;5.78;;;7.20;90.40;;;;;;4994108;28;20502;-75
2022/12/30 08:03:38;;;;;;;18.52;4.80;;;7.30;90.20;;;;;;4991926;28;20022;-75
2022/12/30 08:06:06;;;;;;;14.43;4.28;;;7.30;90.10;;;;;;5001353;28;20045;-75
2022/12/30 08:08:33;;;;;;;17.42;6.00;;;7.40;89.90;;;;;;5006466;28;20108;-75
2022/12/30 08:10:59;;;;;;;13.73;4.47;;;7.40;89.80;;;;;;4988887;28;20478;-75
2022/12/30 08:13:26;;;;;;;17.02;4.93;;;7.40;89.70;;;;;;4997786;28;20106;-75
2022/12/30 08:15:51;;;;;;;10.40;4.35;;;7.40;89.50;;;;;;5000749;28;20169;-75
2022/12/30 08:18:17;;;;;;;15.25;5.07;;;7.50;89.40;;;;;;5000813;28;20112;-76
2022/12/30 08:20:43;;;;;;;16.83;4.25;;;7.40;89.40;;;;;;5002582;28;20481;-76
2022/12/30 08:23:08;;;;;;;19.58;5.28;;;7.50;89.20;;;;;;5000170;28;20484;-76
2022/12/30 08:25:34;;;;;;;15.18;5.22;;;7.50;89.10;;;;;;4999894;28;20466;-75
2022/12/30 08:28:00;;;;;;;15.70;4.75;;;7.60;88.90;;;;;;5003683;28;20059;-75
2022/12/30 08:30:26;;;;;;;11.23;4.30;;;7.60;88.90;;;;;;5006195;28;20056;-76
2022/12/30 08:32:52;;;;;;;15.52;4.53;;;7.60;88.80;;;;;;5003990;28;20034;-76
2022/12/30 08:35:18;;;;;;;13.85;4.63;;;7.70;88.70;;;;;;5006460;28;20033;-76
2022/12/30 08:37:44;;;;;;;13.82;4.47;;;7.70;88.60;;;;;;5005768;28;20040;-76
2022/12/30 08:40:11;;;;;;;13.45;4.85;;;7.70;88.40;;;;;;5004123;28;20375;-76
2022/12/30 08:42:37;;;;;;;16.52;5.18;;;7.80;88.40;;;;;;5004876;28;20042;-75
2022/12/30 08:45:06;;;;;;;14.88;4.78;;;7.80;88.40;;;;;;5009043;28;20030;-76
2022/12/30 08:47:35;;;;;;;12.63;4.78;;;7.80;88.40;;;;;;5004697;28;20042;-75
2022/12/30 08:50:01;;;;;;;11.05;4.03;;;7.80;88.20;;;;;;5007105;28;20042;-75
2022/12/30 08:52:27;;;;;;;11.10;4.38;;;7.80;88.00;;;;;;5001935;28;20061;-75
2022/12/30 08:54:53;;;;;;;11.60;4.03;;;7.90;87.80;;;;;;5004907;28;20037;-76
2022/12/30 08:57:19;;;;;;;12.45;4.18;;;7.90;87.80;;;;;;5003777;28;20070;-74
2022/12/30 08:59:45;;;;;;;14.32;4.75;;;8.00;87.70;;;;;;5003692;28;20395;-76
2022/12/30 09:02:12;;;;;;;16.23;5.30;;;7.90;87.60;;;;;;4996314;28;20049;-73
2022/12/30 09:04:38;;;;;;;13.00;4.28;;;8.00;87.60;;;;;;5007742;28;20030;-75
2022/12/30 09:07:04;;;;;;;15.10;3.90;;;8.00;87.50;;;;;;5002774;28;20398;-75
2022/12/30 09:09:29;;;;;;;14.75;3.97;;;8.00;87.60;;;;;;5004215;28;20029;-75
2022/12/30 09:11:55;;;;;;;12.43;3.28;;;7.90;87.70;;;;;;5001130;28;20035;-75
2022/12/30 09:14:22;;;;;;;9.20;3.35;;;8.00;87.60;;;;;;5005306;28;20056;-75
2022/12/30 09:16:48;;;;;;;14.68;3.97;;;8.00;87.50;;;;;;5001483;28;20129;-75
2022/12/30 09:19:15;;;;;;;8.70;3.58;;;8.00;87.40;;;;;;5007893;28;20400;-75
2022/12/30 09:21:41;;;;;;;11.93;3.42;;;8.10;87.50;;;;;;5005401;28;20103;-75
2022/12/30 09:24:06;;;;;;;17.38;3.60;;;8.10;87.30;;;;;;5004493;28;20064;-75
2022/12/30 09:26:32;;;;;;;11.90;3.58;;;8.10;87.30;;;;;;4991008;28;20115;-75
2022/12/30 09:28:58;;;;;;;12.60;3.00;;;8.10;87.20;;;;;;4993240;28;20026;-75
2022/12/30 09:31:25;;;;;;;12.05;3.50;;;8.10;87.20;;;;;;4994796;28;20064;-75
2022/12/30 09:33:51;;;;;;;16.33;4.30;;;8.20;87.10;;;;;;4995969;28;20086;-75
2022/12/30 09:36:18;;;;;;;13.15;3.83;;;8.20;87.00;;;;;;4987721;28;20034;-75
2022/12/30 09:38:44;;;;;;;10.82;3.42;;;8.20;87.00;;;;;;4995950;28;20517;-75
2022/12/30 09:41:19;;;;;;;16.10;3.95;;;8.30;86.90;;;;;;4983509;28;20411;-76
2022/12/30 09:44:04;;;;;;;13.52;4.00;;;8.30;86.80;;;;;;4999728;28;20037;-74
2022/12/30 09:46:39;;;;;;;14.20;3.92;;;8.40;86.70;;;;;;5001120;28;20462;-73
2022/12/30 09:49:23;;;;;;;10.73;3.05;;;8.40;86.50;;;;;;4998452;28;20121;-73
2022/12/30 09:52:21;;;;;;;16.52;3.58;;;8.40;86.50;;;;;;4995812;28;20117;-73
2022/12/30 09:54:58;;;;;;;14.25;3.65;;;8.50;86.50;;;;;;4991420;28;20054;-74
2022/12/30 09:57:31;;;;;;;16.00;3.72;;;8.60;86.30;;;;;;4999264;28;20029;-74
2022/12/30 10:00:02;;;;;;;11.43;3.50;;;8.50;86.30;;;;;;5003360;28;20140;-74
2022/12/30 10:02:51;;;;;;;18.23;3.40;;;8.60;86.20;;;;;;5007249;28;20025;-74
2022/12/30 10:05:47;;;;;;;13.98;3.28;;;8.60;86.10;;;;;;5003164;28;20030;-74
2022/12/30 10:08:26;;;;;;;15.23;3.45;;;8.60;86.10;;;;;;5011375;28;20103;-74
2022/12/30 10:11:04;;;;;;;14.55;3.65;;;8.70;86.00;;;;;;5004247;28;20560;-74
2022/12/30 10:13:44;;;;;;;13.02;4.07;;;8.70;86.00;;;;;;5000834;28;20042;-74
2022/12/30 10:16:40;;;;;;;12.95;3.70;;;8.80;86.00;;;;;;4997678;28;20042;-74
2022/12/30 10:19:06;;;;;;;13.95;3.65;;;8.80;86.10;;;;;;5000980;28;20124;-75
2022/12/30 10:21:54;;;;;;;19.30;4.60;;;8.90;86.30;;;;;;5002432;28;20044;-74
2022/12/30 10:24:33;;;;;;;15.77;4.70;;;8.80;86.90;;;;;;5002894;28;20076;-73
2022/12/30 10:27:23;;;;;;;13.75;4.50;;;8.90;87.40;;;;;;5003531;28;20046;-74
2022/12/30 10:29:49;;;;;;;12.27;4.35;;;8.70;87.80;;;;;;4998309;28;20144;-74
2022/12/30 10:32:24;;;;;;;14.35;3.92;;;8.80;88.10;;;;;;4998091;28;20491;-73
2022/12/30 10:35:05;;;;;;;15.35;4.32;;;8.80;88.40;;;;;;4998757;28;20018;-76
2022/12/30 10:37:35;;;;;;;17.05;4.35;;;8.70;88.50;;;;;;5000883;28;20030;-74
2022/12/30 10:40:08;;;;;;;14.95;4.00;;;8.70;88.80;;;;;;5006013;28;20774;-74
2022/12/30 10:43:11;;;;;;;17.08;4.82;;;8.70;89.00;;;;;;5006062;28;20095;-74
2022/12/30 10:45:37;;;;;;;15.10;4.50;;;8.70;89.20;;;;;;5003089;28;20041;-75
2022/12/30 10:48:32;;;;;;;11.25;3.17;;;8.70;89.50;;;;;;5002452;28;20030;-74
2022/12/30 10:50:58;;;;;;;13.77;3.55;;;8.70;89.80;;;;;;4995433;28;20444;-74
2022/12/30 10:53:28;;;;;;;20.08;4.82;;;8.70;90.00;;;;;;4996543;28;20030;-74
2022/12/30 10:55:57;;;;;;;16.60;4.10;;;8.70;90.20;;;;;;5002327;28;20042;-74
2022/12/30 10:58:28;;;;;;;13.70;3.90;;;8.70;90.50;;;;;;5001784;28;20022;-74
2022/12/30 11:00:54;;;;;;;15.13;4.70;;;8.70;90.60;;;;;;4999667;28;20045;-74
2022/12/30 11:03:35;;;;;;;14.63;3.95;;;8.70;90.90;;;;;;4996884;28;20033;-74
2022/12/30 11:06:26;;;;;;;13.40;3.45;;;8.70;91.00;;;;;;4995421;28;20332;-74
2022/12/30 11:09:13;;;;;;;11.48;3.80;;;8.70;91.10;;;;;;5003784;28;20127;-75
2022/12/30 11:14:44;;;;;;;11.20;3.55;;;8.70;91.40;;;;;;5001043;28;20100;-75
2022/12/30 11:17:21;;;;;;;12.27;3.45;;;8.80;91.40;;;;;;5004161;28;20072;-73
2022/12/30 11:20:08;;;;;;;8.82;3.33;;;8.70;91.40;;;;;;5004404;28;20025;-75
2022/12/30 11:22:34;;;;;;;13.65;3.50;;;8.80;91.30;;;;;;4997014;28;20073;-76
2022/12/30 11:25:03;;;;;;;9.50;3.20;;;8.80;91.40;;;;;;5007021;28;20501;-74
2022/12/30 11:27:40;;;;;;;8.35;3.13;;;8.80;91.30;;;;;;5001916;28;20057;-75
2022/12/30 11:30:20;;;;;;;8.38;3.17;;;8.80;91.40;;;;;;5009401;28;20037;-76
2022/12/30 11:32:46;;;;;;;11.98;4.07;;;8.80;91.50;;;;;;5002097;28;20035;-74
2022/12/30 11:35:36;;;;;;;10.57;3.00;;;8.90;91.40;;;;;;4997041;28;20044;-76
2022/12/30 11:38:06;;;;;;;7.45;2.78;;;9.00;91.30;;;;;;4994881;28;20367;-75
2022/12/30 11:40:37;;;;;;;8.27;2.50;;;8.90;91.30;;;;;;4995804;28;20032;-75
2022/12/30 11:43:12;;;;;;;7.78;2.63;;;8.90;91.40;;;;;;4994697;28;20025;-77
2022/12/30 11:45:47;;;;;;;11.55;2.85;;;9.00;91.50;;;;;;4992922;28;20484;-74
2022/12/30 11:48:55;;;;;;;8.68;2.65;;;9.00;91.30;;;;;;4993821;28;20234;-74
2022/12/30 11:51:29;;;;;;;7.60;2.70;;;9.10;91.20;;;;;;4996164;28;20429;-73
2022/12/30 11:54:13;;;;;;;6.30;2.60;;;9.10;91.40;;;;;;4990055;28;20292;-74
2022/12/30 11:57:03;;;;;;;6.63;2.30;;;9.10;91.60;;;;;;4987932;28;20386;-73
2022/12/30 11:59:42;;;;;;;8.90;3.08;;;9.10;91.70;;;;;;4990157;28;20116;-72
2022/12/30 12:02:37;;;;;;;6.82;2.15;;;9.10;91.90;;;;;;4988898;28;20069;-73
2022/12/30 12:05:30;;;;;;;7.90;2.53;;;9.10;91.90;;;;;;4998343;28;20081;-75
2022/12/30 12:08:02;;;;;;;6.53;2.30;;;9.00;92.00;;;;;;4996096;28;20500;-73
2022/12/30 12:10:34;;;;;;;6.82;2.20;;;9.10;92.10;;;;;;4997168;28;20019;-73
2022/12/30 12:13:20;;;;;;;5.65;2.45;;;9.10;92.20;;;;;;4992337;28;20057;-74
2022/12/30 12:15:51;;;;;;;4.55;2.20;;;9.10;92.10;;;;;;4993223;28;20460;-73
2022/12/30 12:18:32;;;;;;;8.32;3.03;;;9.10;92.00;;;;;;4991220;28;20363;-75
2022/12/30 12:21:17;;;;;;;5.95;2.05;;;9.20;92.10;;;;;;4992836;28;20498;-75
2022/12/30 12:24:16;;;;;;;7.40;2.53;;;9.20;92.00;;;;;;4995032;28;20433;-74
2022/12/30 12:27:03;;;;;;;6.15;2.03;;;9.20;92.00;;;;;;4991735;28;20057;-75
2022/12/30 12:29:29;;;;;;;5.78;2.63;;;9.20;92.00;;;;;;4992474;28;20038;-73
2022/12/30 12:32:13;;;;;;;4.25;2.20;;;9.10;92.10;;;;;;4988430;28;20042;-74
2022/12/30 12:35:06;;;;;;;5.82;2.45;;;9.20;92.20;;;;;;4978102;28;20293;-74
2022/12/30 12:37:53;;;;;;;7.38;3.13;;;9.10;92.40;;;;;;4997651;28;20061;-76
2022/12/30 12:40:54;;;;;;;6.78;3.15;;;9.20;92.30;;;;;;5008431;28;20391;-74
2022/12/30 12:43:36;;;;;;;9.18;3.20;;;9.30;92.40;;;;;;4989954;28;20022;-74
2022/12/30 12:46:05;;;;;;;6.78;3.30;;;9.20;92.50;;;;;;5003457;28;20322;-74
2022/12/30 12:49:04;;;;;;;6.10;3.42;;;9.30;92.30;;;;;;5003770;28;20112;-74
2022/12/30 12:51:45;;;;;;;7.93;3.40;;;9.20;92.50;;;;;;5001223;28;20057;-74
2022/12/30 12:54:29;;;;;;;5.30;3.03;;;9.30;92.40;;;;;;4998892;28;20047;-75
2022/12/30 12:57:25;;;;;;;6.72;2.80;;;9.40;92.40;;;;;;4994256;28;20045;-73
2022/12/30 13:00:00;;;;;;;5.38;2.92;;;9.40;92.40;;;;;;4998956;28;20026;-75
2022/12/30 13:03:02;;;;;;;4.95;2.70;;;9.40;92.60;;;;;;4999410;28;20079;-76
2022/12/30 13:05:41;;;;;;;5.38;2.65;;;9.40;92.70;;;;;;4994139;28;20023;-73
2022/12/30 13:08:10;;;;;;;6.05;2.55;;;9.40;92.70;;;;;;4999777;28;20350;-73
2022/12/30 13:11:04;;;;;;;5.65;2.33;;;9.40;92.80;;;;;;4997944;28;20042;-74
2022/12/30 13:13:44;;;;;;;5.95;2.95;;;9.40;93.00;;;;;;5005173;28;20144;-75
2022/12/30 13:16:16;;;;;;;8.20;3.08;;;9.60;93.00;;;;;;5000483;28;20041;-78
2022/12/30 13:18:45;;;;;;;4.32;2.08;;;9.60;93.00;;;;;;4999819;28;20122;-76
2022/12/30 13:21:20;;;;;;;7.80;3.30;;;9.60;93.10;;;;;;4990188;28;20045;-75
2022/12/30 13:24:27;;;;;;;8.70;3.38;;;9.70;93.20;;;;;;5004253;28;20014;-76
2022/12/30 13:26:53;;;;;;;7.10;2.90;;;9.80;93.40;;;;;;4997083;28;20050;-74
2022/12/30 13:29:19;;;;;;;7.05;3.10;;;9.80;93.50;;;;;;5002117;28;20030;-74
2022/12/30 13:32:10;;;;;;;3.78;2.42;;;9.90;93.60;;;;;;5006348;28;20065;-74
2022/12/30 13:35:14;;;;;;;6.68;3.38;;;9.90;93.60;;;;;;5012818;28;20093;-75
2022/12/30 13:37:45;;;;;;;3.95;2.30;;;10.10;93.70;;;;;;4999667;28;20026;-75
2022/12/30 13:40:15;;;;;;;8.30;5.13;;;10.10;93.60;;;;;;5003419;28;20025;-75
2022/12/30 13:42:46;;;;;;;10.13;6.32;;;10.20;93.60;;;;;;4994770;28;20022;-74
2022/12/30 13:45:30;;;;;;;8.45;4.55;;;10.20;93.60;;;;;;4998277;28;20026;-75
2022/12/30 13:48:10;;;;;;;9.82;6.40;;;10.20;93.60;;;;;;4993984;28;20391;-75
2022/12/30 13:50:37;;;;;;;8.07;5.63;;;10.30;93.70;;;;;;5004098;28;20133;-75
2022/12/30 13:53:04;;;;;;;9.13;5.63;;;10.40;93.70;;;;;;5008060;28;20051;-75
2022/12/30 13:55:34;;;;;;;9.50;6.05;;;10.40;93.70;;;;;;5003394;28;20433;-75
2022/12/30 13:58:05;;;;;;;9.20;5.15;;;10.40;93.70;;;;;;5013657;28;20018;-76
2022/12/30 14:00:33;;;;;;;10.55;7.82;;;10.50;93.70;;;;;;5004816;28;20342;-75